Time;durP1;ratioP1;P1;durP2;ratioP2;P2;SDS_P1;SDS_P2;PMS_P1;PMS_P2;Temp;Humidity;BMP_temperature;BMP_pressure;BME280_temperature;BME280_humidity;BME280_pressure;Samples;Min_cycle;Max_cycle;Signal;HPM_P1;HPM_P2
2022/05/25 00:00:22;;;;;;;1.37;1.33;;;10.20;99.90;;;;;;490440;242;28580;-69
2022/05/25 00:02:23;;;;;;;1.50;1.50;;;10.10;99.90;;;;;;495899;236;28061;-67
2022/05/25 00:04:24;;;;;;;1.27;1.27;;;10.10;99.90;;;;;;494801;239;28035;-68
2022/05/25 00:06:25;;;;;;;1.30;1.30;;;10.10;99.90;;;;;;494646;240;27706;-72
2022/05/25 00:08:27;;;;;;;2.03;1.50;;;10.20;99.90;;;;;;495875;239;27975;-68
2022/05/25 00:10:28;;;;;;;1.57;1.47;;;10.20;99.90;;;;;;497262;239;27925;-71
2022/05/25 00:12:29;;;;;;;1.50;1.50;;;10.30;99.90;;;;;;497246;239;27926;-69
2022/05/25 00:14:32;;;;;;;1.40;1.30;;;10.20;99.90;;;;;;497171;239;27604;-68
2022/05/25 00:16:32;;;;;;;1.30;1.30;;;10.20;99.90;;;;;;497194;239;27816;-68
2022/05/25 00:18:34;;;;;;;1.20;1.20;;;10.20;99.90;;;;;;497181;239;27928;-70
2022/05/25 00:20:35;;;;;;;1.30;1.30;;;10.10;99.90;;;;;;497222;239;28191;-67
2022/05/25 00:22:36;;;;;;;1.30;1.20;;;10.10;99.90;;;;;;497239;239;28426;-69
2022/05/25 00:24:37;;;;;;;1.43;1.10;;;10.10;99.90;;;;;;497193;239;29181;-68
2022/05/25 00:26:39;;;;;;;1.50;1.40;;;10.10;99.90;;;;;;497300;239;27833;-68
2022/05/25 00:28:40;;;;;;;1.23;1.23;;;10.00;99.90;;;;;;497241;239;27899;-71
2022/05/25 00:30:41;;;;;;;1.10;1.10;;;10.00;99.90;;;;;;497237;239;27796;-67
2022/05/25 00:32:42;;;;;;;1.40;1.30;;;10.00;99.90;;;;;;497555;236;27919;-69
2022/05/25 00:34:44;;;;;;;1.30;1.30;;;9.90;99.90;;;;;;495477;239;28007;-68
2022/05/25 00:36:45;;;;;;;1.10;1.10;;;9.90;99.90;;;;;;496749;239;28014;-68
2022/05/25 00:38:46;;;;;;;1.30;1.30;;;9.80;99.90;;;;;;494877;239;27498;-69
2022/05/25 00:40:47;;;;;;;1.17;1.17;;;9.80;99.90;;;;;;497305;239;27826;-67
2022/05/25 00:42:49;;;;;;;1.30;1.30;;;9.80;99.90;;;;;;495801;236;28020;-69
2022/05/25 00:44:50;;;;;;;1.20;1.20;;;9.80;99.90;;;;;;495602;239;28003;-67
2022/05/25 00:46:51;;;;;;;1.20;1.20;;;9.80;99.90;;;;;;497251;239;27748;-67
2022/05/25 00:48:52;;;;;;;1.20;1.20;;;9.70;99.90;;;;;;497245;239;27935;-71
2022/05/25 00:51:12;;;;;;;1.20;1.20;;;9.70;99.90;;;;;;497087;239;28255;-66
2022/05/25 00:53:13;;;;;;;1.10;1.10;;;9.60;99.90;;;;;;494621;240;27541;-66
2022/05/25 00:55:15;;;;;;;1.20;1.20;;;9.60;99.90;;;;;;494624;240;27725;-71
2022/05/25 00:57:16;;;;;;;1.20;1.20;;;9.60;99.90;;;;;;494609;240;27840;-67
2022/05/25 00:59:17;;;;;;;1.47;1.47;;;9.60;99.90;;;;;;494608;240;27810;-69
2022/05/25 01:01:18;;;;;;;1.50;1.40;;;9.50;99.90;;;;;;494625;236;27805;-67
2022/05/25 01:03:20;;;;;;;1.33;1.23;;;9.40;99.90;;;;;;497068;239;27906;-67
2022/05/25 01:05:21;;;;;;;1.40;1.40;;;9.40;99.90;;;;;;497263;239;27978;-70
2022/05/25 01:07:22;;;;;;;1.30;1.30;;;9.40;99.90;;;;;;497260;239;27937;-67
2022/05/25 01:09:23;;;;;;;1.40;1.33;;;9.40;99.90;;;;;;497238;239;28041;-69
2022/05/25 01:11:25;;;;;;;1.30;1.30;;;9.50;99.90;;;;;;497206;239;27968;-67
2022/05/25 01:13:26;;;;;;;1.20;1.20;;;9.40;99.90;;;;;;497237;239;27986;-67
2022/05/25 01:15:27;;;;;;;1.30;1.23;;;9.40;99.90;;;;;;497281;239;27912;-71
2022/05/25 01:17:28;;;;;;;1.70;1.60;;;9.30;99.90;;;;;;497265;239;27783;-67
2022/05/25 01:19:30;;;;;;;1.60;1.50;;;9.30;99.90;;;;;;497181;239;28048;-68
2022/05/25 01:21:31;;;;;;;1.50;1.40;;;9.30;99.90;;;;;;497229;239;28013;-67
2022/05/25 01:23:32;;;;;;;1.37;1.37;;;9.30;99.90;;;;;;497242;239;28236;-68
2022/05/25 01:25:33;;;;;;;1.30;1.30;;;9.30;99.90;;;;;;497232;239;28491;-71
2022/05/25 01:27:35;;;;;;;1.40;1.40;;;9.30;99.90;;;;;;497268;239;27901;-67
2022/05/25 01:29:36;;;;;;;1.67;1.67;;;9.30;99.90;;;;;;497223;239;27833;-69
2022/05/25 01:31:37;;;;;;;1.60;1.60;;;9.30;99.90;;;;;;497211;239;27893;-67
2022/05/25 01:33:38;;;;;;;1.53;1.43;;;9.30;99.90;;;;;;495538;236;28009;-68
2022/05/25 01:35:40;;;;;;;1.40;1.40;;;9.20;99.90;;;;;;497258;239;27879;-72
2022/05/25 01:37:41;;;;;;;1.40;1.40;;;9.20;99.90;;;;;;494676;239;27889;-67
2022/05/25 01:39:42;;;;;;;1.30;1.30;;;9.10;99.90;;;;;;494589;240;27885;-69
2022/05/25 01:41:43;;;;;;;1.70;1.60;;;9.10;99.90;;;;;;494574;240;27824;-67
2022/05/25 01:43:45;;;;;;;1.80;1.47;;;9.10;99.90;;;;;;494621;240;27828;-68
2022/05/25 01:45:46;;;;;;;1.37;1.37;;;9.10;99.90;;;;;;494603;240;27418;-69
2022/05/25 01:47:47;;;;;;;3.73;1.50;;;9.00;99.90;;;;;;494589;240;27803;-68
2022/05/25 01:49:48;;;;;;;1.40;1.40;;;9.00;99.90;;;;;;494564;240;27971;-69
2022/05/25 01:51:50;;;;;;;1.80;1.50;;;8.90;99.90;;;;;;494555;240;27956;-67
2022/05/25 01:53:51;;;;;;;1.87;1.50;;;8.90;99.90;;;;;;494596;240;28766;-68
2022/05/25 01:55:52;;;;;;;1.60;1.50;;;8.90;99.90;;;;;;494578;240;28465;-72
2022/05/25 01:57:53;;;;;;;1.37;1.37;;;9.00;99.90;;;;;;494623;240;28159;-67
2022/05/25 01:59:55;;;;;;;1.50;1.40;;;9.00;99.90;;;;;;494549;240;28468;-69
2022/05/25 02:04:22;;;;;;;1.40;1.40;;;9.00;99.90;;;;;;494583;240;28235;-67
2022/05/25 02:06:23;;;;;;;1.43;1.43;;;8.90;99.90;;;;;;494611;240;28047;-70
2022/05/25 02:08:24;;;;;;;1.40;1.40;;;8.90;99.90;;;;;;494610;240;27812;-67
2022/05/25 02:10:25;;;;;;;1.30;1.30;;;8.90;99.90;;;;;;494603;240;27851;-68
2022/05/25 02:12:26;;;;;;;1.47;1.47;;;8.90;99.90;;;;;;494603;240;27358;-68
2022/05/25 02:14:27;;;;;;;1.50;1.40;;;8.90;99.90;;;;;;494585;240;27730;-68
2022/05/25 02:16:29;;;;;;;1.30;1.30;;;8.90;99.90;;;;;;494614;240;27760;-70
2022/05/25 02:18:30;;;;;;;1.30;1.30;;;8.90;99.90;;;;;;494610;240;27846;-67
2022/05/25 02:20:31;;;;;;;1.37;1.37;;;8.80;99.90;;;;;;494609;240;27573;-68
2022/05/25 02:22:33;;;;;;;1.37;1.37;;;8.70;99.90;;;;;;494589;240;28644;-67
2022/05/25 02:24:34;;;;;;;1.47;1.40;;;8.60;99.90;;;;;;494615;240;28169;-68
2022/05/25 02:26:35;;;;;;;1.30;1.30;;;8.60;99.90;;;;;;494622;240;28354;-69
2022/05/25 02:28:37;;;;;;;1.40;1.40;;;8.60;99.90;;;;;;494607;240;27917;-68
2022/05/25 02:30:38;;;;;;;1.30;1.30;;;8.60;99.90;;;;;;494567;240;28095;-69
2022/05/25 02:32:39;;;;;;;1.50;1.50;;;8.60;99.90;;;;;;494600;240;29077;-67
2022/05/25 02:34:40;;;;;;;1.40;1.40;;;8.70;99.90;;;;;;494631;240;27721;-67
2022/05/25 02:36:41;;;;;;;1.50;1.40;;;8.70;99.90;;;;;;494607;240;27849;-72
2022/05/25 02:38:43;;;;;;;1.40;1.30;;;8.60;99.90;;;;;;494612;240;27785;-68
2022/05/25 02:40:44;;;;;;;1.40;1.40;;;8.60;99.90;;;;;;494588;240;27576;-67
2022/05/25 02:42:45;;;;;;;1.50;1.50;;;8.50;99.90;;;;;;494582;240;27878;-67
2022/05/25 02:44:46;;;;;;;1.50;1.50;;;8.50;99.90;;;;;;494571;240;27925;-67
2022/05/25 02:46:47;;;;;;;1.30;1.30;;;8.50;99.90;;;;;;494615;240;27870;-71
2022/05/25 02:48:49;;;;;;;1.70;1.60;;;8.50;99.90;;;;;;494610;240;27698;-68
2022/05/25 02:50:50;;;;;;;1.57;1.57;;;8.40;99.90;;;;;;494626;240;27953;-68
2022/05/25 02:52:51;;;;;;;1.40;1.40;;;8.30;99.90;;;;;;494614;240;27908;-67
2022/05/25 02:54:53;;;;;;;1.33;1.30;;;8.40;99.90;;;;;;494628;240;27891;-67
2022/05/25 02:56:54;;;;;;;1.70;1.60;;;8.40;99.90;;;;;;494631;240;27846;-69
2022/05/25 02:58:55;;;;;;;1.23;1.23;;;8.40;99.90;;;;;;494585;240;28299;-67
2022/05/25 03:00:56;;;;;;;1.20;1.20;;;8.40;99.90;;;;;;494593;240;28266;-68
2022/05/25 03:02:58;;;;;;;1.60;1.60;;;8.40;99.90;;;;;;494547;240;27848;-67
2022/05/25 03:04:59;;;;;;;1.10;1.10;;;8.40;99.90;;;;;;494573;240;27800;-67
2022/05/25 03:07:00;;;;;;;1.30;1.30;;;8.40;99.90;;;;;;494604;240;27533;-69
2022/05/25 03:09:01;;;;;;;1.43;1.43;;;8.30;99.90;;;;;;494565;235;28367;-67
2022/05/25 03:11:03;;;;;;;1.30;1.30;;;8.20;99.90;;;;;;494580;240;28317;-68
2022/05/25 03:13:04;;;;;;;1.30;1.30;;;8.20;99.90;;;;;;494571;240;28423;-68
2022/05/25 03:15:05;;;;;;;1.30;1.30;;;8.20;99.90;;;;;;494617;240;28280;-67
2022/05/25 03:17:12;;;;;;;1.30;1.30;;;8.20;99.90;;;;;;494598;240;27871;-69
2022/05/25 03:19:08;;;;;;;1.50;1.40;;;8.10;99.90;;;;;;494379;240;27972;-67
2022/05/25 03:21:09;;;;;;;1.40;1.40;;;8.00;99.90;;;;;;494594;240;27797;-68
2022/05/25 03:23:12;;;;;;;1.47;1.47;;;7.90;99.90;;;;;;494603;240;27937;-67
2022/05/25 03:25:11;;;;;;;1.43;1.43;;;8.00;99.90;;;;;;494624;240;27903;-68
2022/05/25 03:27:13;;;;;;;1.60;1.50;;;7.90;99.90;;;;;;494620;240;27703;-68
2022/05/25 03:29:17;;;;;;;1.40;1.40;;;7.90;99.90;;;;;;494629;240;27682;-67
2022/05/25 03:31:16;;;;;;;1.30;1.30;;;7.90;99.90;;;;;;494627;240;27940;-66
2022/05/25 03:33:16;;;;;;;2.10;1.60;;;7.90;99.90;;;;;;494636;240;27934;-67
2022/05/25 03:35:18;;;;;;;1.40;1.40;;;7.90;99.90;;;;;;494686;240;27823;-67
2022/05/25 03:37:19;;;;;;;1.40;1.40;;;7.90;99.90;;;;;;494658;240;27749;-69
2022/05/25 03:39:20;;;;;;;1.23;1.23;;;8.00;99.90;;;;;;494621;240;27850;-67
2022/05/25 03:41:23;;;;;;;1.30;1.30;;;8.00;99.90;;;;;;494635;240;27468;-68
2022/05/25 03:43:23;;;;;;;1.37;1.37;;;8.00;99.90;;;;;;494627;240;28061;-69
2022/05/25 03:45:24;;;;;;;1.93;1.70;;;8.00;99.90;;;;;;494619;240;27574;-67
2022/05/25 03:47:25;;;;;;;1.47;1.37;;;8.00;99.90;;;;;;494655;240;28975;-68
2022/05/25 03:49:26;;;;;;;1.50;1.40;;;8.00;99.90;;;;;;494626;240;28040;-67
2022/05/25 03:51:28;;;;;;;1.43;1.43;;;8.00;99.90;;;;;;494658;240;28386;-67
2022/05/25 03:53:29;;;;;;;1.93;1.90;;;8.00;99.90;;;;;;494655;240;28394;-67
2022/05/25 03:55:30;;;;;;;1.70;1.60;;;8.00;99.90;;;;;;494676;240;28201;-68
2022/05/25 03:57:32;;;;;;;1.57;1.57;;;8.10;99.90;;;;;;494625;240;27989;-68
2022/05/25 03:59:33;;;;;;;1.20;1.20;;;8.10;99.90;;;;;;494637;240;27579;-67
2022/05/25 04:01:34;;;;;;;1.60;1.50;;;8.00;99.90;;;;;;494650;240;27486;-68
2022/05/25 04:03:35;;;;;;;1.27;1.27;;;8.00;99.90;;;;;;494636;240;27942;-67
2022/05/25 04:05:36;;;;;;;1.40;1.40;;;8.10;99.90;;;;;;494638;240;27652;-68
2022/05/25 04:07:38;;;;;;;1.60;1.53;;;8.10;99.90;;;;;;494623;240;27726;-71
2022/05/25 04:09:39;;;;;;;1.70;1.60;;;8.10;99.90;;;;;;494617;240;27905;-67
2022/05/25 04:11:40;;;;;;;1.50;1.40;;;8.00;99.90;;;;;;494642;240;27956;-68
2022/05/25 04:13:41;;;;;;;1.40;1.40;;;8.00;99.90;;;;;;494675;235;28028;-67
2022/05/25 04:15:43;;;;;;;1.40;1.40;;;8.10;99.90;;;;;;494623;240;27854;-67
2022/05/25 04:17:44;;;;;;;1.30;1.30;;;8.20;99.90;;;;;;494657;240;27927;-70
2022/05/25 04:19:45;;;;;;;1.30;1.30;;;8.20;99.90;;;;;;494646;240;27468;-68
2022/05/25 04:21:46;;;;;;;1.30;1.30;;;8.30;99.90;;;;;;494632;240;27848;-68
2022/05/25 04:23:48;;;;;;;1.60;1.50;;;8.40;99.90;;;;;;494611;240;28355;-67
2022/05/25 04:25:50;;;;;;;1.30;1.30;;;8.40;99.90;;;;;;494643;240;27908;-67
2022/05/25 04:27:50;;;;;;;1.30;1.30;;;8.50;99.90;;;;;;494643;240;28382;-69
2022/05/25 04:29:51;;;;;;;1.30;1.20;;;8.50;99.90;;;;;;494649;240;28390;-68
2022/05/25 04:31:53;;;;;;;1.30;1.30;;;8.60;99.90;;;;;;494624;240;27994;-68
2022/05/25 04:33:54;;;;;;;1.20;1.20;;;8.60;99.90;;;;;;494658;240;28345;-69
2022/05/25 04:35:56;;;;;;;1.40;1.40;;;8.70;99.90;;;;;;494629;240;28376;-68
2022/05/25 04:37:56;;;;;;;1.60;1.50;;;8.80;99.90;;;;;;494584;240;28369;-68
2022/05/25 04:39:58;;;;;;;1.40;1.40;;;8.70;99.90;;;;;;494627;240;27777;-69
2022/05/25 04:41:59;;;;;;;1.63;1.63;;;8.80;99.90;;;;;;499170;236;27980;-68
2022/05/25 04:44:00;;;;;;;1.97;1.63;;;8.90;99.90;;;;;;503627;236;27954;-69
2022/05/25 04:46:03;;;;;;;1.63;1.63;;;8.90;99.90;;;;;;503574;236;28045;-68
2022/05/25 04:48:03;;;;;;;1.70;1.70;;;8.90;99.90;;;;;;503404;236;27961;-69
2022/05/25 04:50:07;;;;;;;2.10;2.00;;;9.00;99.90;;;;;;503677;236;28006;-69
2022/05/25 04:52:05;;;;;;;1.93;1.83;;;9.00;99.90;;;;;;503539;236;28093;-71
2022/05/25 04:54:06;;;;;;;1.53;1.53;;;9.10;99.90;;;;;;503663;236;27854;-74
2022/05/25 04:58:27;;;;;;;2.07;1.70;;;9.20;99.90;;;;;;503678;236;28088;-69
2022/05/25 05:00:28;;;;;;;1.50;1.50;;;9.30;99.90;;;;;;503729;236;27949;-72
2022/05/25 05:02:30;;;;;;;2.70;1.90;;;9.40;99.90;;;;;;503714;236;28021;-68
2022/05/25 05:04:31;;;;;;;1.67;1.60;;;9.40;99.90;;;;;;503739;236;28048;-70
2022/05/25 05:06:32;;;;;;;2.00;1.90;;;9.50;99.90;;;;;;503349;236;28107;-68
2022/05/25 05:08:34;;;;;;;2.17;2.07;;;9.50;99.90;;;;;;503706;236;27895;-69
2022/05/25 05:10:35;;;;;;;2.30;2.20;;;9.60;99.90;;;;;;503754;236;27821;-69
2022/05/25 05:12:36;;;;;;;2.23;2.07;;;9.60;99.90;;;;;;503622;236;27906;-68
2022/05/25 05:14:37;;;;;;;2.17;2.07;;;9.70;99.90;;;;;;503748;236;27969;-69
2022/05/25 05:16:39;;;;;;;2.20;2.10;;;9.70;99.90;;;;;;503702;236;27923;-69
2022/05/25 05:18:40;;;;;;;2.10;2.10;;;9.70;99.90;;;;;;503722;236;27754;-69
2022/05/25 05:20:41;;;;;;;1.73;1.73;;;9.80;99.90;;;;;;503729;236;28036;-70
2022/05/25 05:22:42;;;;;;;1.90;1.80;;;9.80;99.90;;;;;;503714;236;29285;-68
2022/05/25 05:24:44;;;;;;;1.73;1.63;;;9.80;99.90;;;;;;503691;236;28464;-73
2022/05/25 05:26:45;;;;;;;2.40;2.30;;;9.90;99.90;;;;;;503647;236;28614;-68
2022/05/25 05:28:46;;;;;;;2.27;2.17;;;10.00;99.90;;;;;;503702;236;28322;-69
2022/05/25 05:30:48;;;;;;;1.97;1.87;;;10.00;99.90;;;;;;503724;236;28323;-73
2022/05/25 05:32:49;;;;;;;2.63;2.53;;;10.10;99.90;;;;;;503721;236;28040;-68
2022/05/25 05:34:50;;;;;;;2.50;2.40;;;10.10;99.90;;;;;;503725;236;27827;-69
2022/05/25 05:36:51;;;;;;;1.90;1.90;;;10.20;99.90;;;;;;503724;236;27964;-68
2022/05/25 05:38:52;;;;;;;2.57;2.47;;;10.20;99.90;;;;;;495270;236;27938;-70
2022/05/25 05:40:54;;;;;;;1.90;1.80;;;10.20;99.90;;;;;;488586;243;27881;-73
2022/05/25 05:42:55;;;;;;;1.80;1.70;;;10.20;99.90;;;;;;488554;243;27857;-69
2022/05/25 05:44:56;;;;;;;1.90;1.80;;;10.30;99.90;;;;;;488561;243;28044;-70
2022/05/25 05:46:57;;;;;;;3.73;2.33;;;10.40;99.90;;;;;;488522;243;27951;-68
2022/05/25 05:48:59;;;;;;;1.80;1.70;;;10.40;99.90;;;;;;488563;243;28269;-70
2022/05/25 05:51:01;;;;;;;1.80;1.70;;;10.50;99.90;;;;;;488586;243;29103;-72
2022/05/25 05:53:01;;;;;;;1.70;1.60;;;10.50;99.90;;;;;;488521;243;28380;-69
2022/05/25 05:55:03;;;;;;;1.77;1.77;;;10.50;99.90;;;;;;488402;243;27776;-69
2022/05/25 05:57:04;;;;;;;1.97;1.87;;;10.60;99.90;;;;;;488575;243;27759;-73
2022/05/25 05:59:05;;;;;;;1.80;1.70;;;10.60;99.90;;;;;;488498;243;27846;-69
2022/05/25 06:01:06;;;;;;;2.13;1.90;;;10.70;99.90;;;;;;488554;243;28389;-70
2022/05/25 06:03:08;;;;;;;1.90;1.73;;;10.70;99.90;;;;;;488578;243;28048;-70
2022/05/25 06:05:09;;;;;;;1.90;1.80;;;10.80;99.90;;;;;;488562;243;28449;-70
2022/05/25 06:07:10;;;;;;;1.97;1.87;;;10.80;99.90;;;;;;488614;243;27640;-72
2022/05/25 06:09:11;;;;;;;2.57;2.37;;;10.90;99.90;;;;;;488573;243;27853;-69
2022/05/25 06:11:13;;;;;;;2.23;2.00;;;10.90;99.90;;;;;;488560;243;27951;-69
2022/05/25 06:13:14;;;;;;;2.50;2.20;;;10.90;99.90;;;;;;488542;243;27983;-69
2022/05/25 06:19:54;;;;;;;2.40;2.20;;;11.10;99.90;;;;;;488523;243;28727;-66
2022/05/25 06:21:55;;;;;;;2.03;1.93;;;11.10;99.90;;;;;;488599;243;28536;-70
2022/05/25 06:23:57;;;;;;;2.07;1.97;;;11.20;99.90;;;;;;488589;243;28414;-73
2022/05/25 06:25:58;;;;;;;2.07;1.87;;;11.20;99.90;;;;;;488490;243;28352;-69
2022/05/25 06:27:59;;;;;;;1.97;1.87;;;11.30;99.90;;;;;;488519;243;27997;-70
2022/05/25 06:30:00;;;;;;;2.13;2.03;;;11.30;99.90;;;;;;488309;243;27962;-74
2022/05/25 06:32:02;;;;;;;2.17;2.07;;;11.40;99.90;;;;;;488221;243;27862;-69
2022/05/25 06:34:03;;;;;;;2.20;2.10;;;11.40;99.90;;;;;;488240;243;28080;-70
2022/05/25 06:36:04;;;;;;;2.30;2.20;;;11.50;99.90;;;;;;488301;243;28216;-69
2022/05/25 06:38:05;;;;;;;1.87;1.77;;;11.50;99.90;;;;;;488250;243;28259;-71
2022/05/25 06:40:07;;;;;;;1.90;1.80;;;11.60;99.90;;;;;;488726;236;27997;-78
2022/05/25 06:42:08;;;;;;;2.10;2.00;;;11.60;99.90;;;;;;496025;238;28095;-69
2022/05/25 06:44:09;;;;;;;2.40;2.30;;;11.60;99.90;;;;;;494343;240;28231;-68
2022/05/25 06:46:11;;;;;;;1.80;1.70;;;11.70;99.90;;;;;;494535;240;28611;-69
2022/05/25 06:48:12;;;;;;;2.90;2.13;;;11.70;99.90;;;;;;494533;240;28776;-69
2022/05/25 06:50:13;;;;;;;2.00;1.90;;;11.80;99.90;;;;;;494542;240;28806;-72
2022/05/25 06:52:15;;;;;;;2.70;2.50;;;11.80;99.90;;;;;;494546;240;28165;-69
2022/05/25 06:54:15;;;;;;;2.30;2.20;;;11.90;99.90;;;;;;494501;240;29004;-70
2022/05/25 06:56:17;;;;;;;2.10;1.90;;;12.00;99.90;;;;;;494483;240;28377;-71
2022/05/25 06:58:18;;;;;;;2.23;2.13;;;12.00;99.90;;;;;;493243;240;29110;-71
2022/05/25 07:00:24;;;;;;;1.97;1.87;;;;;;;;;;493186;240;28130;-70
2022/05/25 07:02:31;;;;;;;2.53;2.33;;;12.10;99.90;;;;;;493781;240;27818;-72
2022/05/25 07:04:33;;;;;;;3.03;2.10;;;12.20;99.90;;;;;;494446;240;28817;-71
2022/05/25 07:06:34;;;;;;;2.30;2.10;;;12.30;99.90;;;;;;494450;240;28401;-71
2022/05/25 07:08:35;;;;;;;2.70;2.50;;;12.30;99.90;;;;;;494344;240;28154;-73
2022/05/25 07:10:36;;;;;;;2.20;2.10;;;12.40;99.90;;;;;;494571;240;28164;-71
2022/05/25 07:12:38;;;;;;;3.03;2.57;;;12.40;99.90;;;;;;494563;240;28206;-72
2022/05/25 07:14:39;;;;;;;1.90;1.80;;;12.40;99.90;;;;;;494521;240;28284;-71
2022/05/25 07:16:40;;;;;;;2.30;2.10;;;12.50;99.90;;;;;;494558;240;28408;-71
2022/05/25 07:18:41;;;;;;;2.10;2.00;;;12.60;99.90;;;;;;494567;240;28321;-72
2022/05/25 07:20:43;;;;;;;2.20;2.10;;;12.60;99.90;;;;;;494495;240;28376;-71
2022/05/25 07:22:44;;;;;;;2.93;1.93;;;12.60;99.90;;;;;;494510;240;28742;-71
2022/05/25 07:24:45;;;;;;;2.57;2.37;;;12.60;99.90;;;;;;494535;240;29356;-71
2022/05/25 07:26:46;;;;;;;2.00;1.70;;;12.70;99.90;;;;;;494215;240;28670;-71
2022/05/25 07:28:48;;;;;;;3.07;1.83;;;12.80;99.90;;;;;;494530;240;29298;-74
2022/05/25 07:30:50;;;;;;;1.80;1.70;;;;;;;;;;494511;240;28385;-71
2022/05/25 07:32:51;;;;;;;1.90;1.80;;;13.00;99.90;;;;;;494580;240;26540;-71
2022/05/25 07:34:54;;;;;;;2.00;1.90;;;13.00;99.90;;;;;;494566;240;28271;-71
2022/05/25 07:36:54;;;;;;;2.00;1.90;;;13.10;99.90;;;;;;494465;240;29051;-73
2022/05/25 07:38:55;;;;;;;2.07;1.93;;;13.10;99.90;;;;;;494591;240;28523;-71
2022/05/25 07:40:56;;;;;;;2.03;1.90;;;13.20;99.90;;;;;;494536;240;29244;-71
2022/05/25 07:42:58;;;;;;;1.90;1.80;;;13.20;99.90;;;;;;494538;240;28182;-70
2022/05/25 07:44:59;;;;;;;1.80;1.60;;;13.20;99.90;;;;;;492698;236;28179;-70
2022/05/25 07:47:00;;;;;;;1.93;1.80;;;13.30;99.90;;;;;;488533;243;27975;-75
2022/05/25 07:49:01;;;;;;;1.50;1.50;;;13.30;99.90;;;;;;488576;243;28227;-71
2022/05/25 07:51:03;;;;;;;1.93;1.83;;;13.30;99.90;;;;;;488587;243;28077;-73
2022/05/25 07:53:55;;;;;;;1.87;1.77;;;13.50;99.90;;;;;;488556;243;28057;-71
2022/05/25 07:55:05;;;;;;;1.90;1.80;;;13.40;99.90;;;;;;487072;243;28286;-71
2022/05/25 07:57:06;;;;;;;1.90;1.80;;;13.40;99.90;;;;;;488576;243;28168;-73
2022/05/25 07:59:08;;;;;;;1.40;1.40;;;13.40;99.90;;;;;;488597;243;28061;-70
2022/05/25 08:01:09;;;;;;;1.50;1.40;;;13.50;99.90;;;;;;488597;243;28669;-70
2022/05/25 08:05:43;;;;;;;2.23;2.10;;;13.80;99.90;;;;;;488614;243;27100;-72
2022/05/25 08:07:44;;;;;;;2.33;2.13;;;13.90;99.90;;;;;;488511;243;28118;-70
2022/05/25 08:09:46;;;;;;;2.10;2.00;;;13.80;99.90;;;;;;488577;243;28136;-70
2022/05/25 08:11:47;;;;;;;2.00;1.80;;;14.00;99.90;;;;;;488591;243;28184;-72
2022/05/25 08:13:48;;;;;;;4.27;2.10;;;14.00;99.90;;;;;;488588;243;28704;-70
2022/05/25 08:15:49;;;;;;;2.33;2.00;;;13.90;99.90;;;;;;488586;243;28236;-72
2022/05/25 08:17:51;;;;;;;2.10;1.90;;;14.00;99.90;;;;;;488604;242;28090;-74
2022/05/25 08:19:52;;;;;;;2.17;1.97;;;14.30;99.90;;;;;;488542;243;28405;-72
2022/05/25 08:21:53;;;;;;;2.30;1.97;;;14.40;99.90;;;;;;488576;243;28164;-72
2022/05/25 08:23:55;;;;;;;2.20;2.00;;;14.40;99.90;;;;;;488587;243;28915;-72
2022/05/25 08:25:56;;;;;;;1.90;1.80;;;14.40;99.90;;;;;;488554;243;28542;-72
2022/05/25 08:27:57;;;;;;;2.13;2.03;;;14.40;99.90;;;;;;488603;243;28913;-72
2022/05/25 08:29:59;;;;;;;2.00;2.00;;;14.40;99.90;;;;;;488616;243;28284;-73
2022/05/25 08:32:00;;;;;;;2.23;2.10;;;14.40;99.90;;;;;;488561;243;28315;-72
2022/05/25 08:34:01;;;;;;;2.30;2.20;;;14.50;99.90;;;;;;488608;243;28398;-72
2022/05/25 08:36:02;;;;;;;2.20;2.10;;;14.70;99.90;;;;;;488483;243;28322;-72
2022/05/25 08:38:03;;;;;;;1.90;1.80;;;14.80;99.90;;;;;;488589;243;28736;-73
2022/05/25 08:40:05;;;;;;;1.93;1.83;;;14.80;99.90;;;;;;488564;243;28164;-72
2022/05/25 08:42:06;;;;;;;1.93;1.80;;;15.00;99.90;;;;;;488637;243;28803;-72
2022/05/25 08:44:07;;;;;;;5.23;2.20;;;15.00;99.90;;;;;;488614;243;28708;-72
2022/05/25 08:46:13;;;;;;;2.70;1.90;;;15.30;99.90;;;;;;488631;243;28690;-73
2022/05/25 08:48:10;;;;;;;4.10;2.23;;;15.40;99.90;;;;;;488301;243;29215;-73
2022/05/25 08:50:11;;;;;;;2.00;1.90;;;15.40;99.90;;;;;;488657;243;29145;-72
2022/05/25 08:52:12;;;;;;;2.23;2.13;;;15.50;99.90;;;;;;488634;243;29281;-73
2022/05/25 08:54:13;;;;;;;2.20;1.90;;;15.70;99.90;;;;;;488639;243;29864;-72
2022/05/25 08:56:15;;;;;;;2.00;1.70;;;15.90;99.90;;;;;;488658;243;28669;-73
2022/05/25 08:58:16;;;;;;;2.07;1.87;;;16.00;99.90;;;;;;488671;243;28720;-72
2022/05/25 09:00:17;;;;;;;2.53;1.67;;;16.00;99.90;;;;;;488640;243;28755;-73
2022/05/25 09:02:18;;;;;;;1.77;1.67;;;16.10;99.90;;;;;;488611;243;28834;-72
2022/05/25 09:04:20;;;;;;;1.90;1.80;;;16.20;99.90;;;;;;488628;243;28747;-72
2022/05/25 09:06:21;;;;;;;2.07;1.83;;;16.30;99.90;;;;;;488612;243;28771;-72
2022/05/25 09:08:22;;;;;;;1.90;1.80;;;16.40;99.90;;;;;;488608;243;28760;-73
2022/05/25 09:10:23;;;;;;;1.90;1.80;;;16.40;99.90;;;;;;488615;242;28728;-72
2022/05/25 09:12:25;;;;;;;1.93;1.80;;;16.10;99.90;;;;;;488598;243;29282;-72
2022/05/25 09:14:26;;;;;;;1.83;1.73;;;15.90;99.90;;;;;;488617;243;30003;-72
2022/05/25 09:16:27;;;;;;;1.87;1.77;;;15.50;99.90;;;;;;488639;243;29140;-72
2022/05/25 09:18:33;;;;;;;1.80;1.70;;;15.30;99.90;;;;;;488626;243;29240;-73
2022/05/25 09:20:30;;;;;;;2.10;1.90;;;15.40;99.90;;;;;;488324;243;28681;-73
2022/05/25 09:22:34;;;;;;;2.47;1.60;;;15.50;99.90;;;;;;488604;243;28788;-72
2022/05/25 09:24:35;;;;;;;2.00;1.90;;;15.40;99.90;;;;;;488592;243;28816;-73
2022/05/25 09:26:36;;;;;;;2.10;2.00;;;15.50;99.90;;;;;;488622;243;29299;-74
2022/05/25 09:28:38;;;;;;;2.10;1.58;;;15.80;99.90;;;;;;486263;243;36362;-72
2022/05/25 09:30:39;;;;;;;2.00;1.90;;;16.00;99.90;;;;;;488617;243;27879;-73
2022/05/25 09:32:40;;;;;;;1.70;1.60;;;16.20;99.90;;;;;;488616;243;28677;-72
2022/05/25 09:34:41;;;;;;;1.50;1.40;;;16.10;99.90;;;;;;488594;243;29131;-72
2022/05/25 09:36:43;;;;;;;1.70;1.60;;;15.90;99.90;;;;;;488636;243;28706;-76
2022/05/25 09:38:44;;;;;;;2.47;1.63;;;15.80;99.90;;;;;;488618;243;28690;-72
2022/05/25 09:40:45;;;;;;;3.23;1.73;;;16.00;99.90;;;;;;488614;243;28728;-73
2022/05/25 09:42:46;;;;;;;1.70;1.60;;;16.10;99.90;;;;;;488617;243;28689;-72
2022/05/25 09:44:48;;;;;;;1.60;1.50;;;16.20;99.90;;;;;;488610;243;28717;-72
2022/05/25 09:46:49;;;;;;;1.50;1.40;;;16.10;99.90;;;;;;488599;243;28798;-74
2022/05/25 09:48:50;;;;;;;1.63;1.53;;;15.80;99.90;;;;;;488630;243;28686;-72
2022/05/25 09:50:51;;;;;;;1.40;1.30;;;15.70;99.90;;;;;;488621;243;29282;-72
2022/05/25 09:52:53;;;;;;;1.73;1.50;;;16.00;99.90;;;;;;488621;243;29196;-72
2022/05/25 09:54:54;;;;;;;1.67;1.50;;;16.40;99.90;;;;;;488613;243;29202;-73
2022/05/25 09:56:55;;;;;;;1.50;1.40;;;16.60;99.90;;;;;;488629;243;28847;-74
2022/05/25 09:58:56;;;;;;;1.73;1.53;;;16.50;99.90;;;;;;488624;243;28681;-72
2022/05/25 10:00:58;;;;;;;1.63;1.53;;;16.30;99.90;;;;;;488635;243;28819;-73
2022/05/25 10:02:59;;;;;;;1.70;1.57;;;16.30;99.90;;;;;;488596;243;28681;-72
2022/05/25 10:05:00;;;;;;;1.63;1.53;;;16.30;99.90;;;;;;488609;243;28717;-72
2022/05/25 10:07:01;;;;;;;1.60;1.50;;;16.30;99.90;;;;;;488620;243;28834;-74
2022/05/25 10:09:03;;;;;;;1.83;1.43;;;16.50;99.90;;;;;;488604;243;28723;-72
2022/05/25 10:11:05;;;;;;;1.90;1.80;;;16.70;99.90;;;;;;488584;243;28830;-73
2022/05/25 10:13:05;;;;;;;1.80;1.70;;;16.70;99.90;;;;;;488591;243;28806;-72
2022/05/25 10:15:06;;;;;;;3.50;1.80;;;16.80;99.90;;;;;;488607;243;29234;-72
2022/05/25 10:17:08;;;;;;;2.20;1.63;;;17.10;99.90;;;;;;488631;243;29201;-74
2022/05/25 10:19:09;;;;;;;1.73;1.63;;;17.30;99.90;;;;;;488620;243;29238;-72
2022/05/25 10:21:10;;;;;;;1.77;1.20;;;17.30;99.90;;;;;;488625;243;29224;-73
2022/05/25 10:23:11;;;;;;;3.10;1.87;;;17.50;99.90;;;;;;488601;243;28723;-73
2022/05/25 10:25:13;;;;;;;1.20;1.10;;;17.60;99.90;;;;;;488614;243;28757;-72
2022/05/25 10:27:14;;;;;;;1.73;1.40;;;17.60;99.90;;;;;;488618;243;28785;-73
2022/05/25 10:36:45;;;;;;;1.47;1.37;;;17.60;99.90;;;;;;488613;243;28692;-72
2022/05/25 10:38:15;;;;;;;1.70;1.40;;;17.20;99.90;;;;;;488634;243;29153;-72
2022/05/25 10:40:16;;;;;;;1.37;1.27;;;17.60;99.90;;;;;;488661;243;29181;-74
2022/05/25 10:42:25;;;;;;;1.40;1.30;;;17.70;99.90;;;;;;488644;243;28763;-72
2022/05/25 10:44:22;;;;;;;2.37;1.30;;;17.60;99.90;;;;;;488370;243;28675;-72
2022/05/25 10:46:23;;;;;;;2.50;1.40;;;17.30;99.90;;;;;;488608;243;28790;-72
2022/05/25 10:48:25;;;;;;;2.83;1.37;;;17.20;99.90;;;;;;488614;243;28770;-72
2022/05/25 10:50:25;;;;;;;1.43;1.33;;;17.10;99.90;;;;;;488584;243;28808;-72
2022/05/25 10:52:27;;;;;;;1.67;1.57;;;16.90;99.90;;;;;;488474;243;28713;-74
2022/05/25 10:54:47;;;;;;;1.40;1.30;;;17.00;99.90;;;;;;488605;243;28770;-73